Burns Pinion Ridge Reserve, California Weather observations

Data are for 10 minute period ending at time listed.
 Day   Time   Solar   Ave.   Ave.  Ave.  Vector  Max.   Baro.   Total    
  of    of     Rad.   Air    Rel.  Wind   Wind   Wind  Press.  Precip.   
Year   Day            Temp.  Hum.  Speed  Dir.   Gust                    
2017   (PST)  Kw/m2    F      %     mph   deg.    mph    mb.     in.     
-------------------------------------------------------------------------
 320   13:10   0.33   67.6    29    9.9   209    24.8   875.1    0.00 
 320   13:20   0.28   67.6    29    9.3   206    19.4   875.0    0.00 
 320   13:30   0.38   68.1    29    9.8   207    19.8   874.8    0.00 
 320   13:40   0.29   67.8    29   10.5   201    22.1   874.8    0.00 
 320   13:50   0.27   68.3    28    6.3   183    13.7   874.8    0.00 
 320   14:00   0.31   69.4    28    5.5   174    15.4   874.9    0.00 
 320   14:10   0.35   68.9    28    8.3   200    19.8   874.8    0.00 
 320   14:20   0.28   68.3    29    7.8   195    18.9   874.9    0.00 
 320   14:30   0.21   67.5    30    7.1   196    20.1   874.9    0.00 
 320   14:40   0.21   67.2    30    8.4   200    21.3   874.7    0.00 
 320   14:50   0.14   66.2    31    9.3   205    20.1   874.6    0.00 
 320   15:00   0.16   66.0    32    8.2   205    18.6   874.6    0.00 
 320   15:10   0.12   66.0    31    7.8   203    17.9   874.6    0.00 
 320   15:20   0.11   65.8    32    7.3   185    16.6   874.5    0.00 
 320   15:30   0.11   65.7    32    5.4   188    12.6   874.5    0.00 
 320   15:40   0.17   66.5    31    6.1   205    15.3   874.6    0.00 
 320   15:50   0.08   66.1    31    5.7   194    12.8   874.6    0.00 
 320   16:00   0.06   65.1    32    6.6   206    11.6   874.6    0.00 
 320   16:10   0.05   64.8    31    6.5   205    15.8   874.5    0.00 
 320   16:20   0.03   64.4    31    7.9   216    14.2   874.5    0.00 
 320   16:30   0.01   64.0    32    8.8   210    15.6   874.3    0.00 
 320   16:40   0.01   63.7    32    8.3   213    14.3   874.4    0.00 
 320   16:50   0.00   63.6    32    7.1   215    15.4   874.4    0.00 
 320   17:00   0.00   63.4    32    6.8   225    13.2   874.5    0.00 
 320   17:10   0.00   63.3    32    7.8   216    16.7   874.5    0.00 
 320   17:20   0.00   63.2    32    6.5   214    12.1   874.4    0.00 
 320   17:30   0.00   63.0    32    7.2   207    16.1   874.5    0.00 
 320   17:40   0.00   62.8    33    7.5   214    15.3   874.6    0.00 
 320   17:50   0.00   62.6    33    4.0   202     9.3   874.7    0.00 
 320   18:00   0.00   62.2    34    4.4   200    12.9   874.8    0.00 
 320   18:10   0.00   62.2    34    6.5   201    17.0   874.9    0.00 
 320   18:20   0.00   62.3    34    7.1   205    15.9   874.8    0.00 
 320   18:30   0.00   62.2    34    6.8   199    13.4   875.1    0.00 
 320   18:40   0.00   62.1    34    7.1   216    15.8   875.1    0.00 
 320   18:50   0.00   62.1    35    5.1   201     9.3   875.0    0.00 
 320   19:00   0.00   61.7    36    6.8   206    14.8   875.0    0.00 
 320   19:10   0.00   61.8    36    7.0   207    12.3   875.1    0.00 
 320   19:20   0.00   61.4    37    3.5   204     7.0   875.1    0.00 
 320   19:30   0.00   61.2    37    5.4   194    12.1   875.2    0.00 
 320   19:40   0.00   60.9    38    5.0   200    12.9   875.2    0.00 
 320   19:50   0.00   61.0    38    6.6   210    11.0   875.1    0.00 
 320   20:00   0.00   61.0    39    6.5   204    11.6   875.1    0.00 
 320   20:10   0.00   60.7    39    6.3   201    13.0   875.2    0.00 
 320   20:20   0.00   60.6    40    7.3   203    13.6   875.3    0.00 
 320   20:30   0.00   60.5    40    4.7   198     7.6   875.2    0.00 
 320   20:40   0.00   60.1    41    6.9   201    12.1   875.1    0.00 
 320   20:50   0.00   60.1    41    7.2   203    13.3   875.0    0.00 
 320   21:00   0.00   59.8    42    5.1   197     9.6   875.2    0.00 
 320   21:10   0.00   59.6    42    5.8   211    13.2   875.3    0.00 
 320   21:20   0.00   59.6    42    4.7   208     9.5   875.2    0.00 
 320   21:30   0.00   59.3    43    5.5   199    12.4   875.1    0.00 
 320   21:40   0.00   59.1    43    7.6   211    13.1   875.2    0.00 
 320   21:50   0.00   59.2    43    6.9   222    13.8   875.1    0.00 
 320   22:00   0.00   59.2    43    7.1   218    14.4   875.1    0.00 
 320   22:10   0.00   59.1    43    4.6   196    11.0   875.1    0.00 
 320   22:20   0.00   58.6    44    2.6   237     6.1   875.0    0.00 
 320   22:30   0.00   58.2    44    2.0   294     4.9   874.9    0.00 
 320   22:40   0.00   58.5    43    3.1   212     6.2   874.8    0.00 
 320   22:50   0.00   59.2    40    5.9   212    10.3   874.7    0.00 
 320   23:00   0.00   59.5    39    8.1   204    12.3   874.7    0.00 
 320   23:10   0.00   59.6    39    5.1   216     9.1   874.9    0.00 
 320   23:20   0.00   59.1    39    5.8   202     9.7   874.9    0.00 
 320   23:30   0.00   59.2    39    5.3   217     9.2   875.1    0.00 
 320   23:40   0.00   59.6    38    7.5   207    12.9   875.1    0.00 
 320   23:50   0.00   59.7    38    7.2   207    10.9   875.0    0.00 
 321    0:00   0.00   59.3    39    5.8   197    11.5   875.0    0.00 
 321    0:10   0.00   59.2    39    6.7   207    12.1   875.0    0.00 
 321    0:20   0.00   59.2    39    6.1   210     9.9   875.1    0.00 
 321    0:30   0.00   58.9    40    6.5   208     9.8   875.2    0.00 
 321    0:40   0.00   58.8    41    7.7   210    11.8   875.2    0.00 
 321    0:50   0.00   58.7    41    6.9   213    12.0   875.2    0.00 
 321    1:00   0.00   58.5    42    7.3   212    10.7   875.0    0.00 
 321    1:10   0.00   58.3    42    7.0   203    12.6   874.9    0.00 
 321    1:20   0.00   58.2    42    6.6   207    10.7   874.9    0.00 
 321    1:30   0.00   58.2    43    9.1   213    14.5   875.0    0.00 
 321    1:40   0.00   58.0    43    7.9   206    12.9   874.8    0.00 
 321    1:50   0.00   57.7    44    7.9   189    12.0   874.7    0.00 
 321    2:00   0.00   57.5    44    7.4   189    12.2   874.7    0.00 
 321    2:10   0.00   57.5    44    8.9   198    13.7   874.6    0.00 
 321    2:20   0.00   57.4    44    7.6   187    15.1   874.6    0.00 
 321    2:30   0.00   57.1    45    6.6   193    10.4   874.6    0.00 
 321    2:40   0.00   57.0    45    6.2   211    11.0   874.7    0.00 
 321    2:50   0.00   57.0    45    6.8   206    12.1   874.6    0.00 
 321    3:00   0.00   56.9    45    7.1   200    16.1   874.6    0.00 
 321    3:10   0.00   57.1    44    6.6   196    13.1   874.5    0.00 
 321    3:20   0.00   56.8    45    7.0   201    12.1   874.6    0.00 
 321    3:30   0.00   56.7    46    7.0   203    13.8   874.6    0.00 
 321    3:40   0.00   56.9    46    6.0   200    10.5   874.8    0.00 
 321    3:50   0.00   56.8    47    6.4   193    11.2   874.7    0.00 
 321    4:00   0.00   56.7    48    6.4   191    11.1   874.7    0.00 
 321    4:10   0.00   56.7    48    7.2   202    11.2   874.9    0.00 
 321    4:20   0.00   56.7    48    6.6   202    11.5   875.0    0.00 
 321    4:30   0.00   56.6    48    6.8   207    11.5   875.0    0.00 
 321    4:40   0.00   56.7    48    7.2   209    14.1   875.1    0.00 
 321    4:50   0.00   56.3    50    7.6   203    11.6   875.1    0.00 
 321    5:00   0.00   56.1    50    6.7   196    11.8   874.9    0.00 
 321    5:10   0.00   56.0    51    6.5   198    14.2   875.0    0.00 
 321    5:20   0.00   55.6    52    6.5   189    11.0   875.1    0.00 
 321    5:30   0.00   55.4    53    5.8   187     9.9   875.0    0.00 
 321    5:40   0.00   55.3    54    6.4   196     9.6   875.0    0.00 
 321    5:50   0.00   55.1    54    6.8   201     9.9   875.1    0.00 
 321    6:00   0.00   55.0    55    6.3   198    11.1   875.1    0.00 
 321    6:10   0.00   55.1    56    5.9   199     9.1   875.0    0.00 
 321    6:20   0.00   54.9    58    5.3   202     9.5   874.8    0.00 
 321    6:30   0.00   54.8    59    6.3   206    10.7   874.8    0.00 
 321    6:40   0.01   54.8    59    7.6   189    11.0   874.8    0.00 
 321    6:50   0.02   55.1    60    6.7   190    11.1   875.0    0.00 
 321    7:00   0.03   55.4    60    7.0   182     9.7   875.2    0.00 
 321    7:10   0.03   55.5    60    5.9   182     9.3   875.2    0.00 
 321    7:20   0.04   55.9    60    7.2   207    10.2   875.4    0.00 
 321    7:30   0.06   56.2    60    8.1   209    11.0   875.6    0.00 
 321    7:40   0.10   56.5    59    8.2   198    12.8   875.5    0.00 
 321    7:50   0.18   57.2    57    7.7   204    11.9   875.6    0.00 
 321    8:00   0.11   57.6    56    6.4   226    10.6   876.0    0.00 
 321    8:10   0.15   56.9    57    9.7   207    13.7   876.1    0.00 
 321    8:20   0.18   56.5    58    9.6   195    13.9   875.8    0.00 
 321    8:30   0.16   57.5    57    8.1   184    12.2   875.7    0.00 
 321    8:40   0.21   57.3    57    8.5   207    13.7   875.9    0.00 
 321    8:50   0.25   58.2    56    8.2   204    13.7   876.1    0.00 
 321    9:00   0.20   58.4    56    5.8   208    10.3   876.3    0.00 
 321    9:10   0.23   58.6    56    6.7   205    11.8   876.2    0.00 
 321    9:20   0.28   59.0    55    6.1   206    11.1   876.1    0.00 
 321    9:30   0.16   59.0    55    6.0   192    11.3   876.3    0.00 
 321    9:40   0.17   58.7    56    5.2   203     9.6   876.5    0.00 
 321    9:50   0.21   59.2    56    6.3   204    11.6   876.5    0.00 
 321   10:00   0.18   58.9    57    4.7   201    10.2   876.4    0.00 
 321   10:10   0.23   59.9    55    1.8   245     4.0   876.4    0.00 
 321   10:20   0.33   61.5    51    1.8   326     5.6   876.5    0.00 
 321   10:30   0.48   63.4    46    2.9    65     6.4   876.6    0.00 
 321   10:40   0.54   64.2    45    3.1   108     8.0   876.6    0.00 
 321   10:50   0.59   65.1    43    4.1    78     9.1   876.7    0.00 
 321   11:00   0.49   64.6    44    3.5   147     9.1   876.8    0.00 
 321   11:10   0.65   66.2    43    3.4   135     6.6   876.7    0.00 
 321   11:20   0.53   66.1    43    3.9   132     8.8   876.7    0.00 
 321   11:30   0.52   66.0    42    5.0   139    12.6   876.6    0.00 
 321   11:40   0.47   65.1    44    6.8   133    12.4   876.5    0.00 
 321   11:50   0.59   66.5    41    4.8   129    10.2   876.3    0.00 
 321   12:00   0.58   66.2    42    6.1   135    11.4   876.2    0.00 
 321   12:10   0.63   66.8    40    7.2   130    12.1   876.1    0.00 
 321   12:20   0.62   67.4    39    7.1   140    13.6   876.1    0.00 
 321   12:30   0.56   67.6    39    7.8   124    15.3   876.1    0.00 
 321   12:40   0.39   66.3    40    7.8   136    13.4   876.0    0.00 
 321   12:50   0.37   66.4    40    8.6   140    12.0   875.9    0.00 
 321   13:00   0.52   67.2    38    6.0   137    13.7   875.9    0.00 

Return to Burns Pinion Ridge Reserve graphs page.


Western Regional Climate Center,wrcc@dri.edu